Time;durP1;ratioP1;P1;durP2;ratioP2;P2;SDS_P1;SDS_P2;PMS_P1;PMS_P2;Temp;Humidity;BMP_temperature;BMP_pressure;BME280_temperature;BME280_humidity;BME280_pressure;Samples;Min_cycle;Max_cycle;Signal;HPM_P1;HPM_P2
2022/12/15 00:41:36;;;;;;;159.63;57.75;;;;;;;-3.73;98.88;97986.88;8372322;28;20053;-73
2022/12/15 01:20:19;;;;;;;159.70;57.17;;;;;;;-3.57;98.88;98007.13;8376240;28;20041;-74
2022/12/15 01:24:20;;;;;;;160.93;57.28;;;;;;;-3.57;99.04;98012.41;8373017;28;20060;-75
2022/12/15 01:28:22;;;;;;;162.07;59.33;;;;;;;-3.54;98.92;98011.91;8367836;28;20486;-74
2022/12/15 01:32:23;;;;;;;163.45;58.70;;;;;;;-3.51;98.95;98011.44;8369907;28;20659;-75
2022/12/15 01:36:24;;;;;;;168.82;61.85;;;;;;;-3.55;99.03;98010.34;8370408;28;20461;-74
2022/12/15 01:44:48;;;;;;;168.73;60.47;;;;;;;-3.60;98.61;98018.19;8379665;28;20061;-74
2022/12/15 01:49:09;;;;;;;159.30;58.53;;;;;;;-3.61;98.65;98027.13;8381210;28;20057;-74
2022/12/15 01:53:11;;;;;;;171.38;60.13;;;;;;;-3.57;98.48;98033.53;8351131;28;20045;-74
2022/12/15 01:57:17;;;;;;;169.38;58.22;;;;;;;-3.57;98.45;98044.06;8382467;28;20165;-74
2022/12/15 02:01:18;;;;;;;173.50;61.33;;;;;;;-3.65;98.89;98047.16;8378271;28;20061;-74
2022/12/15 02:05:20;;;;;;;175.60;61.05;;;;;;;-3.65;98.54;98047.16;8382594;28;20440;-73
2022/12/15 02:09:22;;;;;;;170.55;59.78;;;;;;;-3.66;98.73;98046.34;8371157;28;20114;-74
2022/12/15 02:13:32;;;;;;;183.93;61.70;;;;;;;-3.77;98.74;98059.63;8386336;28;20471;-74
2022/12/15 02:17:39;;;;;;;176.90;60.00;;;;;;;-3.78;98.68;98058.03;8350195;28;20051;-74
2022/12/15 02:21:47;;;;;;;171.60;60.83;;;;;;;-3.84;98.45;98055.31;8366613;28;20179;-74
2022/12/15 02:26:22;;;;;;;177.35;58.25;;;;;;;-3.86;98.91;98073.22;8348265;28;20696;-74
2022/12/15 02:35:46;;;;;;;175.18;59.20;;;;;;;-3.86;98.52;98083.75;8365428;28;20130;-75
2022/12/15 02:39:47;;;;;;;182.38;60.63;;;;;;;-3.89;98.52;98099.28;8230891;28;20038;-74
2022/12/15 02:43:48;;;;;;;173.55;59.05;;;;;;;-3.97;99.04;98097.84;8227124;28;20081;-74
2022/12/15 02:48:21;;;;;;;172.93;60.97;;;;;;;-4.02;99.10;98105.66;8215187;28;20053;-74
2022/12/15 02:52:50;;;;;;;179.52;61.65;;;;;;;-4.00;99.26;98103.59;8159165;29;20048;-74
2022/12/15 02:57:16;;;;;;;140.47;49.77;;;;;;;-4.00;98.86;98114.13;8165700;29;20048;-74
2022/12/15 03:01:24;;;;;;;171.68;58.83;;;;;;;-4.04;98.99;98118.31;8140357;29;20307;-74
2022/12/15 03:05:25;;;;;;;170.55;59.55;;;;;;;-4.02;99.13;98116.22;8149246;29;20051;-73
2022/12/15 03:09:26;;;;;;;180.07;61.60;;;;;;;-4.04;99.30;98123.56;8151208;29;20055;-74
2022/12/15 03:13:26;;;;;;;173.73;59.17;;;;;;;-3.98;98.88;98133.19;8164482;29;20139;-73
2022/12/15 03:17:28;;;;;;;167.60;59.58;;;;;;;-3.96;98.73;98146.09;8268979;28;20149;-74
2022/12/15 03:21:28;;;;;;;170.07;57.45;;;;;;;-3.98;99.03;98143.72;8299968;28;20058;-73
2022/12/15 03:25:29;;;;;;;158.68;56.35;;;;;;;-4.02;99.00;98142.56;8279702;28;20519;-73
2022/12/15 03:29:30;;;;;;;169.18;58.13;;;;;;;-3.98;99.01;98154.28;8360921;28;20051;-73
2022/12/15 03:33:32;;;;;;;159.50;57.00;;;;;;;-3.96;98.97;98159.28;8363183;28;20044;-74
2022/12/15 03:37:33;;;;;;;154.32;52.78;;;;;;;-3.96;98.49;98154.81;8381156;28;20064;-74
2022/12/15 03:41:34;;;;;;;156.43;56.42;;;;;;;-3.97;98.69;98170.91;8382727;28;20045;-75
2022/12/15 03:45:35;;;;;;;167.38;57.67;;;;;;;-4.00;98.44;98182.72;8377627;28;20055;-75
2022/12/15 03:49:36;;;;;;;162.48;57.05;;;;;;;-4.02;98.53;98174.22;8391130;28;20044;-75
2022/12/15 03:53:37;;;;;;;168.57;58.00;;;;;;;-4.03;98.41;98182.41;8384611;28;20379;-73
2022/12/15 03:57:38;;;;;;;177.65;61.30;;;;;;;-4.04;98.38;98186.88;8383421;28;20052;-74
2022/12/15 04:01:44;;;;;;;184.65;66.68;;;;;;;-4.05;98.45;98190.53;8388941;28;20045;-74
2022/12/15 04:05:46;;;;;;;201.73;65.22;;;;;;;-4.11;98.60;98196.75;8385906;28;20053;-73
2022/12/15 04:09:47;;;;;;;202.27;66.65;;;;;;;-4.14;98.49;98189.31;8390980;28;20182;-74
2022/12/15 04:13:48;;;;;;;209.13;70.20;;;;;;;-4.24;98.92;98191.78;8387359;28;20045;-73
2022/12/15 04:17:48;;;;;;;207.63;71.45;;;;;;;-4.19;98.81;98205.06;8385773;28;20052;-74
2022/12/15 04:21:49;;;;;;;220.18;71.88;;;;;;;-4.24;98.74;98207.59;8384393;28;20056;-73
2022/12/15 05:35:09;;;;;;;181.98;59.38;;;;;;;-3.92;97.60;98298.38;8374479;28;20056;-74
2022/12/15 05:39:10;;;;;;;189.13;63.50;;;;;;;-3.92;97.64;98311.59;8339769;28;20053;-73
2022/12/15 05:43:11;;;;;;;174.13;61.13;;;;;;;-3.95;97.28;98312.03;8331177;28;20136;-75
2022/12/15 05:47:12;;;;;;;168.70;58.95;;;;;;;-3.96;97.38;98326.25;8336450;28;20045;-74
2022/12/15 05:51:14;;;;;;;177.52;58.65;;;;;;;-3.92;97.33;98322.13;8356307;28;20045;-74
2022/12/15 05:55:15;;;;;;;159.88;57.70;;;;;;;-3.87;97.43;98330.13;8349471;28;20037;-73
2022/12/15 05:59:17;;;;;;;167.45;57.60;;;;;;;-3.87;97.46;98340.69;8357173;28;20124;-74
2022/12/15 06:03:19;;;;;;;156.45;54.53;;;;;;;-3.87;97.32;98340.69;8336565;28;20065;-74
2022/12/15 06:07:19;;;;;;;160.50;54.58;;;;;;;-3.87;97.39;98345.97;8334293;28;20630;-74
2022/12/15 06:11:21;;;;;;;152.38;54.90;;;;;;;-3.86;97.21;98357.31;8342057;28;20076;-73
2022/12/15 06:15:22;;;;;;;159.10;55.05;;;;;;;-3.83;97.33;98357.66;8334845;28;20041;-73
2022/12/15 06:19:23;;;;;;;161.30;56.83;;;;;;;-3.80;97.24;98366.09;8343158;28;20042;-74
2022/12/15 06:23:25;;;;;;;151.07;53.53;;;;;;;-3.80;96.98;98374.03;8331756;28;20044;-74
2022/12/15 06:27:26;;;;;;;139.50;48.47;;;;;;;-3.84;97.00;98382.41;8341478;28;20048;-74
2022/12/15 06:31:27;;;;;;;147.38;49.55;;;;;;;-3.79;95.78;98394.09;8358277;28;20049;-74
2022/12/15 06:35:28;;;;;;;134.48;47.00;;;;;;;-3.83;96.02;98394.59;8324804;28;20144;-74
2022/12/15 06:39:29;;;;;;;136.68;48.85;;;;;;;-3.79;95.71;98405.47;8366902;28;20052;-75
2022/12/15 06:43:32;;;;;;;138.85;49.03;;;;;;;-3.78;95.60;98416.81;8386604;28;20082;-73
2022/12/15 06:47:33;;;;;;;145.43;51.78;;;;;;;-3.75;95.92;98437.47;8395224;28;20200;-74
2022/12/15 06:51:34;;;;;;;135.55;50.67;;;;;;;-3.70;95.88;98430.44;8392030;28;20052;-73
2022/12/15 06:55:35;;;;;;;136.85;47.50;;;;;;;-3.62;95.20;98426.66;8377588;28;20082;-75
2022/12/15 06:59:36;;;;;;;123.55;45.10;;;;;;;-3.61;95.38;98438.81;8378644;28;20134;-73
2022/12/15 07:03:37;;;;;;;118.70;44.03;;;;;;;-3.61;95.33;98444.09;8377061;28;20057;-73
2022/12/15 07:07:38;;;;;;;95.50;34.25;;;;;;;-3.61;95.21;98454.66;8395899;28;20049;-75
2022/12/15 07:11:40;;;;;;;65.97;23.55;;;;;;;-3.57;93.29;98450.50;8383794;28;20110;-73
2022/12/15 07:15:41;;;;;;;58.47;22.10;;;;;;;-3.53;92.32;98454.25;8391109;28;20076;-73
2022/12/15 07:19:42;;;;;;;63.15;22.63;;;;;;;-3.51;92.14;98455.66;8389312;28;20071;-74
2022/12/15 07:23:43;;;;;;;61.60;23.40;;;;;;;-3.50;91.62;98451.19;8389085;28;20479;-73
2022/12/15 07:27:45;;;;;;;51.28;19.05;;;;;;;-3.40;89.54;98461.94;8384685;28;20110;-73
2022/12/15 07:31:46;;;;;;;50.95;20.00;;;;;;;-3.41;89.26;98465.59;8377561;28;20052;-74
2022/12/15 07:35:54;;;;;;;56.45;21.67;;;;;;;-3.35;89.37;98480.50;8377975;28;20053;-75
2022/12/15 07:39:55;;;;;;;54.80;21.97;;;;;;;-3.35;89.94;98491.06;8393434;28;20075;-74
2022/12/15 07:43:57;;;;;;;55.42;22.08;;;;;;;-3.29;90.16;98484.84;8348708;28;20536;-74
2022/12/15 07:47:58;;;;;;;53.25;20.98;;;;;;;-3.23;89.95;98499.78;8389809;28;20125;-75
2022/12/15 07:51:59;;;;;;;59.10;23.10;;;;;;;-3.24;89.50;98503.44;8389075;28;20402;-73
2022/12/15 07:56:00;;;;;;;61.90;25.63;;;;;;;-3.26;89.37;98502.06;8369955;28;20056;-75
2022/12/15 08:00:04;;;;;;;66.07;25.65;;;;;;;-3.27;89.36;98509.19;8368243;28;20049;-75
2022/12/15 08:04:05;;;;;;;83.63;29.30;;;;;;;-3.30;89.31;98520.22;8373328;28;20098;-74
2022/12/15 08:08:06;;;;;;;89.20;31.25;;;;;;;-3.34;89.71;98513.81;8369885;28;20045;-74
2022/12/15 08:12:07;;;;;;;85.68;32.88;;;;;;;-3.29;89.52;98521.03;8373918;28;20049;-74
2022/12/15 08:16:08;;;;;;;95.00;35.08;;;;;;;-3.29;90.00;98542.94;8324439;28;20054;-75
2022/12/15 08:20:09;;;;;;;84.15;32.38;;;;;;;-3.18;89.77;98539.47;8324655;28;20041;-75
2022/12/15 08:24:12;;;;;;;95.25;33.17;;;;;;;-3.15;89.49;98544.28;8324863;28;20053;-73
2022/12/15 08:28:14;;;;;;;83.03;31.55;;;;;;;-3.16;88.98;98547.16;8324617;28;20052;-74
2022/12/15 08:32:15;;;;;;;58.78;22.25;;;;;;;-3.10;85.80;98551.50;8318217;28;20317;-74
2022/12/15 08:36:18;;;;;;;63.30;24.48;;;;;;;-3.14;85.46;98561.75;8280127;28;20259;-74
2022/12/15 08:40:19;;;;;;;51.08;20.42;;;;;;;-3.09;84.56;98553.91;8321392;28;20056;-75
2022/12/15 08:44:21;;;;;;;49.83;21.10;;;;;;;-3.09;84.21;98555.75;8323934;28;20053;-73
2022/12/15 08:48:22;;;;;;;55.55;22.23;;;;;;;-3.12;84.41;98559.66;8282662;28;20060;-73
2022/12/15 08:52:23;;;;;;;66.28;25.70;;;;;;;-3.16;84.43;98574.38;8351107;28;20040;-74
2022/12/15 08:56:25;;;;;;;76.00;27.83;;;;;;;-3.11;85.57;98586.88;8393748;28;20094;-73
2022/12/15 09:00:26;;;;;;;69.32;28.13;;;;;;;-3.14;85.46;98582.88;8393238;28;20043;-75
2022/12/15 09:04:27;;;;;;;80.35;35.42;;;;;;;-3.15;85.36;98591.81;8380704;28;20059;-74
2022/12/15 09:08:29;;;;;;;115.90;44.83;;;;;;;-3.13;84.52;98592.41;8393533;28;20048;-74
2022/12/15 09:12:31;;;;;;;161.73;78.88;;;;;;;-3.21;84.60;98582.19;8393144;28;20044;-74
2022/12/15 09:16:32;;;;;;;66.28;24.98;;;;;;;-3.14;84.56;98588.16;8390645;28;20158;-73
2022/12/15 09:20:33;;;;;;;67.20;26.05;;;;;;;-3.08;85.02;98603.06;8392952;28;20538;-74
2022/12/15 09:24:35;;;;;;;68.10;27.70;;;;;;;-3.10;84.89;98615.69;8384759;28;20491;-73
2022/12/15 09:28:37;;;;;;;67.90;24.50;;;;;;;-3.03;84.48;98600.53;8375769;28;20472;-74
2022/12/15 09:32:37;;;;;;;63.38;26.20;;;;;;;-3.04;85.22;98598.94;8375784;28;20053;-74
2022/12/15 09:36:39;;;;;;;63.55;26.30;;;;;;;-3.01;84.73;98609.00;8393103;28;20052;-73
2022/12/15 09:40:40;;;;;;;63.40;26.42;;;;;;;-2.97;84.56;98603.28;8387230;28;20099;-73
2022/12/15 09:44:42;;;;;;;68.38;24.65;;;;;;;-2.92;84.75;98606.03;8374654;28;20562;-73
2022/12/15 09:48:44;;;;;;;60.15;24.92;;;;;;;-2.81;83.58;98597.25;8372851;28;20102;-74
2022/12/15 09:52:51;;;;;;;58.03;24.58;;;;;;;-2.80;83.12;98609.44;8379451;28;20044;-74
2022/12/15 09:56:57;;;;;;;58.13;24.55;;;;;;;-2.82;83.83;98606.22;8391617;28;20514;-74
2022/12/15 10:01:22;;;;;;;59.53;23.70;;;;;;;-2.81;83.62;98618.41;8381800;28;20427;-74
2022/12/15 10:05:48;;;;;;;65.40;25.63;;;;;;;-2.77;83.20;98614.25;8395806;28;20433;-74
2022/12/15 10:09:49;;;;;;;57.75;22.85;;;;;;;-2.60;82.40;98615.94;8363226;28;20059;-74
2022/12/15 10:13:55;;;;;;;51.35;20.92;;;;;;;-2.38;81.67;98613.41;8398039;28;20051;-74
2022/12/15 10:18:05;;;;;;;54.63;21.00;;;;;;;-2.34;80.72;98611.91;8398872;28;20056;-74
2022/12/15 10:22:12;;;;;;;48.50;20.38;;;;;;;-2.47;80.59;98609.53;8389942;28;20068;-73
2022/12/15 10:26:19;;;;;;;49.92;21.17;;;;;;;-2.48;80.10;98613.22;8395574;28;20327;-74
2022/12/15 10:30:21;;;;;;;47.67;20.27;;;;;;;-2.36;79.98;98606.03;8398952;28;20506;-74
2022/12/15 10:34:33;;;;;;;55.63;22.55;;;;;;;-2.11;79.92;98596.97;8384757;28;20075;-74
2022/12/15 10:38:37;;;;;;;52.25;21.25;;;;;;;-2.15;80.04;98613.28;8398215;28;20134;-74
2022/12/15 10:42:47;;;;;;;55.95;21.33;;;;;;;-2.30;79.07;98626.25;8395717;28;20055;-73
2022/12/15 10:46:54;;;;;;;49.05;21.38;;;;;;;-2.29;79.03;98635.81;8398565;28;20063;-73
2022/12/15 10:51:24;;;;;;;52.50;20.08;;;;;;;-2.22;78.58;98636.44;8397772;28;20048;-73
2022/12/15 10:55:44;;;;;;;45.83;19.45;;;;;;;-1.92;78.35;98638.03;8364961;28;20060;-73
2022/12/15 10:59:45;;;;;;;46.45;19.42;;;;;;;-1.79;77.85;98632.41;8390401;28;20048;-73
2022/12/15 11:03:51;;;;;;;48.70;20.73;;;;;;;-1.55;77.62;98633.84;8397101;28;20517;-73
2022/12/15 11:07:54;;;;;;;50.65;20.70;;;;;;;-1.48;77.22;98642.41;8397721;28;20060;-74
2022/12/15 11:16:16;;;;;;;49.72;18.23;;;;;;;-1.44;76.81;98651.50;8395289;28;20056;-73
2022/12/15 11:20:21;;;;;;;48.20;20.60;;;;;;;-1.36;76.25;98659.03;8354300;28;20385;-73
2022/12/15 11:24:43;;;;;;;59.15;22.75;;;;;;;-1.56;76.57;98666.66;8390413;28;20045;-73
2022/12/15 11:28:48;;;;;;;49.78;20.45;;;;;;;-1.58;76.29;98666.09;8385148;28;20464;-73
2022/12/15 11:32:54;;;;;;;52.67;21.40;;;;;;;-1.59;76.60;98669.00;8379422;28;20040;-73
2022/12/15 11:37:14;;;;;;;51.33;21.23;;;;;;;-1.72;76.68;98680.69;8373281;28;20048;-72
2022/12/15 11:41:43;;;;;;;52.80;20.17;;;;;;;-1.61;76.32;98677.19;8395703;28;20608;-73
2022/12/15 11:46:02;;;;;;;54.17;21.95;;;;;;;-1.57;76.98;98667.72;8244591;28;20528;-73
2022/12/15 11:50:27;;;;;;;51.08;20.13;;;;;;;-1.56;76.54;98679.91;8244621;28;20042;-73
2022/12/15 11:54:37;;;;;;;56.80;22.77;;;;;;;-1.46;76.78;98672.13;8165095;29;20498;-74
2022/12/15 11:58:45;;;;;;;51.13;20.98;;;;;;;-1.27;76.46;98673.47;8164475;29;20502;-72
2022/12/15 12:03:01;;;;;;;55.45;21.35;;;;;;;-1.15;76.79;98685.81;8164956;29;20056;-73
2022/12/15 12:07:27;;;;;;;56.78;23.38;;;;;;;-0.99;75.83;98685.00;8152348;29;20047;-73
2022/12/15 12:11:35;;;;;;;54.40;22.70;;;;;;;-1.08;75.71;98697.06;8164338;29;20047;-73
2022/12/15 12:16:02;;;;;;;56.33;23.33;;;;;;;-1.27;75.03;98703.69;8164388;29;20056;-73
2022/12/15 12:20:24;;;;;;;49.40;19.65;;;;;;;-1.20;75.23;98693.69;8169908;28;20044;-72
2022/12/15 12:24:29;;;;;;;46.63;20.38;;;;;;;-1.40;75.52;98700.28;8275860;28;20054;-73
2022/12/15 12:29:05;;;;;;;54.90;22.65;;;;;;;-1.61;75.99;98698.38;8242530;28;20042;-74
2022/12/15 12:33:25;;;;;;;55.67;21.02;;;;;;;-1.59;76.31;98683.06;8225046;28;20046;-74
2022/12/15 12:37:41;;;;;;;61.03;23.35;;;;;;;-1.80;76.45;98678.47;8220781;28;20484;-74
2022/12/15 12:42:10;;;;;;;57.33;22.23;;;;;;;-2.00;76.89;98683.38;8250203;28;20047;-74
2022/12/15 12:46:19;;;;;;;59.35;23.60;;;;;;;-2.18;77.66;98687.84;8226739;28;20047;-73
2022/12/15 12:50:23;;;;;;;61.55;23.85;;;;;;;-2.28;78.46;98674.44;8225955;28;20063;-72
2022/12/15 12:54:37;;;;;;;63.80;24.48;;;;;;;-2.31;78.56;98672.25;8225426;28;20047;-73
2022/12/15 12:58:40;;;;;;;63.42;23.88;;;;;;;-2.37;79.34;98678.47;8227361;28;20133;-73
2022/12/15 13:02:52;;;;;;;60.72;25.25;;;;;;;-2.44;79.29;98688.41;8226630;28;20062;-73
2022/12/15 13:07:03;;;;;;;62.22;24.52;;;;;;;-2.55;79.87;98686.59;8249735;28;20045;-73
2022/12/15 13:11:44;;;;;;;64.65;27.10;;;;;;;-2.61;80.21;98682.25;8307145;28;20057;-73
2022/12/15 13:15:48;;;;;;;60.75;26.55;;;;;;;-2.63;80.55;98673.72;8306416;28;20057;-74
2022/12/15 13:19:58;;;;;;;61.70;24.92;;;;;;;-2.68;81.25;98681.56;8305875;28;20049;-73
2022/12/15 13:23:58;;;;;;;63.70;25.80;;;;;;;-2.80;81.44;98688.72;8387072;28;20056;-73
2022/12/15 13:28:11;;;;;;;61.28;25.67;;;;;;;-2.85;81.67;98696.53;8366107;28;20055;-73
2022/12/15 13:32:44;;;;;;;68.03;29.05;;;;;;;-3.02;82.20;98697.25;8374200;28;20130;-73
2022/12/15 13:36:52;;;;;;;72.63;30.52;;;;;;;-3.05;82.65;98692.41;8382450;28;20058;-73
2022/12/15 13:40:53;;;;;;;82.93;33.42;;;;;;;-3.06;82.27;98690.78;8389901;28;20079;-73
2022/12/15 13:45:03;;;;;;;88.35;36.97;;;;;;;-3.06;82.54;98700.56;8381148;28;20051;-73
2022/12/15 13:49:14;;;;;;;94.80;35.50;;;;;;;-3.14;82.65;98707.00;8388308;28;20044;-73
2022/12/15 13:53:20;;;;;;;91.43;37.10;;;;;;;-3.13;83.13;98695.41;8346946;28;20078;-74
2022/12/15 13:57:22;;;;;;;98.50;39.72;;;;;;;-3.04;83.06;98704.59;8391348;28;20119;-73
2022/12/15 14:01:26;;;;;;;94.95;39.65;;;;;;;-3.06;83.14;98705.84;8388226;28;20048;-74
2022/12/15 14:05:27;;;;;;;94.63;38.25;;;;;;;-3.13;83.18;98699.91;8350148;28;20054;-73
2022/12/15 14:09:39;;;;;;;85.15;34.78;;;;;;;-3.17;83.06;98701.41;8390434;28;20544;-73
2022/12/15 14:13:40;;;;;;;74.53;30.92;;;;;;;-3.30;83.36;98712.97;8391316;28;20048;-74
2022/12/15 14:17:46;;;;;;;62.78;26.88;;;;;;;-3.53;83.58;98715.56;8376832;28;20131;-74
2022/12/15 14:21:53;;;;;;;72.97;28.60;;;;;;;-3.62;84.06;98727.50;8381669;28;20052;-74
2022/12/15 14:26:15;;;;;;;96.32;36.05;;;;;;;-3.73;84.17;98725.63;8382855;28;20094;-73
2022/12/15 14:30:23;;;;;;;89.07;34.60;;;;;;;-3.86;84.41;98742.47;8392434;28;20139;-73
2022/12/15 14:34:35;;;;;;;66.47;29.27;;;;;;;-4.27;84.35;98748.47;8378761;28;20525;-74
2022/12/15 14:39:00;;;;;;;67.57;27.10;;;;;;;-4.33;84.60;98757.28;8391738;28;20079;-74
2022/12/15 14:43:02;;;;;;;76.95;31.85;;;;;;;-4.44;84.77;98765.94;8380068;28;20151;-73
2022/12/15 14:47:06;;;;;;;77.82;30.65;;;;;;;-4.59;84.92;98778.66;8380751;28;20708;-73
2022/12/15 14:51:09;;;;;;;95.65;32.72;;;;;;;-4.73;85.21;98781.44;8378728;28;20415;-73
2022/12/15 14:55:26;;;;;;;100.90;35.33;;;;;;;-4.88;85.31;98773.09;8396596;28;20095;-73
2022/12/15 14:59:32;;;;;;;136.70;45.13;;;;;;;-4.99;85.40;98781.69;8397661;28;20070;-74
2022/12/15 15:03:33;;;;;;;167.10;55.63;;;;;;;-5.13;85.41;98782.84;8384698;28;20135;-73
2022/12/15 15:07:37;;;;;;;146.35;53.53;;;;;;;-5.22;85.56;98784.13;8397246;28;20048;-73
2022/12/15 15:11:40;;;;;;;158.10;55.78;;;;;;;-5.34;85.67;98801.66;8359259;28;20040;-73
2022/12/15 15:15:41;;;;;;;140.75;52.33;;;;;;;-5.44;86.10;98796.03;8353706;28;20076;-74
2022/12/15 15:19:56;;;;;;;131.73;48.58;;;;;;;-5.58;86.25;98806.66;8350323;28;20050;-75
2022/12/15 15:24:03;;;;;;;125.13;46.40;;;;;;;-5.73;86.22;98803.50;8237419;28;20487;-75
2022/12/15 15:28:19;;;;;;;157.07;50.30;;;;;;;-5.84;86.11;98806.81;8233158;28;20054;-75
2022/12/15 15:32:21;;;;;;;159.63;50.28;;;;;;;-5.92;86.27;98804.44;8287402;28;20054;-76
2022/12/15 15:36:34;;;;;;;163.18;52.83;;;;;;;-5.99;86.70;98814.19;8288132;28;20046;-75
2022/12/15 15:40:36;;;;;;;166.90;53.13;;;;;;;-6.00;86.49;98812.56;8283733;28;20061;-75
2022/12/15 15:44:37;;;;;;;157.70;51.53;;;;;;;-6.04;86.40;98803.50;8325330;28;20053;-76
2022/12/15 15:48:44;;;;;;;126.15;45.78;;;;;;;-6.13;86.54;98794.22;8336976;28;20173;-75
2022/12/15 15:52:45;;;;;;;124.22;42.92;;;;;;;-6.20;86.94;98790.84;8341971;28;20418;-76
2022/12/15 15:56:46;;;;;;;104.60;36.17;;;;;;;-6.21;86.68;98794.47;8393520;28;20044;-75
2022/12/15 16:00:47;;;;;;;96.57;33.17;;;;;;;-6.29;86.78;98802.59;8379419;28;20049;-75
2022/12/15 16:04:48;;;;;;;93.55;33.85;;;;;;;-6.43;87.14;98802.63;8394278;28;20056;-75
2022/12/15 16:08:51;;;;;;;91.07;34.33;;;;;;;-6.57;87.30;98789.75;8380815;28;20036;-75
2022/12/15 16:12:53;;;;;;;84.40;31.00;;;;;;;-6.65;87.08;98790.78;8384255;28;20457;-75
2022/12/15 16:16:55;;;;;;;83.22;28.35;;;;;;;-6.70;86.96;98785.31;8378085;28;20486;-76
2022/12/15 16:20:55;;;;;;;81.80;31.48;;;;;;;-6.78;87.02;98777.69;8376025;28;20122;-75
2022/12/15 16:24:57;;;;;;;98.75;32.42;;;;;;;-6.84;87.39;98779.31;8391148;28;20098;-75
2022/12/15 16:28:58;;;;;;;102.35;34.35;;;;;;;-6.88;87.39;98779.94;8378822;28;20044;-75
2022/12/15 16:33:00;;;;;;;89.90;32.25;;;;;;;-6.91;87.57;98778.50;8370683;28;20531;-76
2022/12/15 16:37:02;;;;;;;84.38;31.48;;;;;;;-6.98;87.62;98782.16;8379859;28;20055;-75
2022/12/15 16:41:06;;;;;;;91.60;32.25;;;;;;;-7.03;87.62;98784.59;8375515;28;20063;-73
2022/12/15 16:45:17;;;;;;;85.25;31.83;;;;;;;-7.05;87.85;98786.59;8355884;28;20407;-75
2022/12/15 16:49:18;;;;;;;87.95;31.42;;;;;;;-7.07;87.55;98772.88;8380463;28;20040;-74
2022/12/15 16:53:22;;;;;;;116.43;40.35;;;;;;;-7.11;87.67;98795.28;8390541;28;20064;-74
2022/12/15 16:57:24;;;;;;;135.73;44.53;;;;;;;-7.15;88.03;98808.00;8386429;28;20166;-74
2022/12/15 17:01:25;;;;;;;127.90;44.15;;;;;;;-7.20;88.17;98814.88;8394278;28;20052;-74
2022/12/15 17:05:30;;;;;;;172.15;58.00;;;;;;;-7.21;87.90;98815.88;8393535;28;20043;-74
2022/12/15 17:09:35;;;;;;;177.50;57.45;;;;;;;-7.15;88.13;98822.94;8376415;28;20049;-74
2022/12/15 17:13:38;;;;;;;180.40;56.75;;;;;;;-7.12;88.10;98833.03;8393271;28;20388;-74
2022/12/15 17:17:39;;;;;;;191.18;61.63;;;;;;;-7.03;88.06;98831.84;8392397;28;20040;-75
2022/12/15 17:21:45;;;;;;;198.60;61.70;;;;;;;-6.93;88.36;98837.50;8383310;28;20076;-74
2022/12/15 17:25:47;;;;;;;199.63;60.90;;;;;;;-6.89;88.23;98833.44;8367329;28;20048;-73
2022/12/15 17:29:48;;;;;;;197.45;63.80;;;;;;;-6.85;88.55;98829.38;8346654;28;20079;-73
2022/12/15 17:33:51;;;;;;;189.35;61.45;;;;;;;-6.85;88.75;98824.94;8351474;28;20491;-74
2022/12/15 17:37:52;;;;;;;206.10;67.63;;;;;;;-6.82;88.61;98828.19;8389764;28;20049;-73
2022/12/15 17:41:53;;;;;;;207.13;70.05;;;;;;;-6.82;89.14;98835.03;8357504;28;20110;-72
2022/12/15 17:45:54;;;;;;;189.70;60.55;;;;;;;-6.79;89.22;98836.47;8391022;28;20044;-75
2022/12/15 17:49:55;;;;;;;193.15;58.53;;;;;;;-6.79;89.27;98854.84;8383039;28;20052;-74
2022/12/15 17:53:57;;;;;;;191.20;64.55;;;;;;;-6.79;89.49;98839.09;8380766;28;20044;-74
2022/12/15 17:57:58;;;;;;;198.45;62.83;;;;;;;-6.80;89.45;98837.47;8392633;28;20068;-75
2022/12/15 18:01:59;;;;;;;197.20;64.25;;;;;;;-6.80;89.54;98826.97;8386475;28;20064;-72
2022/12/15 18:06:00;;;;;;;197.85;65.18;;;;;;;-6.77;89.37;98826.56;8382228;28;20110;-74
2022/12/15 18:10:01;;;;;;;191.50;67.07;;;;;;;-6.76;89.36;98833.41;8380549;28;20052;-73
2022/12/15 18:14:02;;;;;;;209.75;69.28;;;;;;;-6.75;89.72;98819.28;8386931;28;20402;-73
2022/12/15 18:18:03;;;;;;;200.48;67.00;;;;;;;-6.73;89.80;98827.78;8389926;28;20519;-74
2022/12/15 18:22:32;;;;;;;203.02;65.15;;;;;;;-6.74;89.79;98841.91;8385283;28;20102;-74
2022/12/15 18:26:36;;;;;;;;;;;;;;;-6.75;90.01;98848.16;8291862;28;20065;-76
2022/12/15 18:30:37;;;;;;;185.20;58.90;;;;;;;-6.76;89.97;98848.34;8282229;28;19921;-74
2022/12/15 18:34:38;;;;;;;208.50;67.90;;;;;;;-6.77;90.10;98857.25;8295752;28;20058;-74
2022/12/15 18:38:39;;;;;;;227.57;73.45;;;;;;;-6.79;90.08;98854.84;8254333;28;20447;-75
2022/12/15 18:42:41;;;;;;;226.88;71.93;;;;;;;-6.74;90.33;98847.16;8294160;28;20062;-74
2022/12/15 18:46:41;;;;;;;234.23;72.70;;;;;;;-6.71;90.56;98841.47;8295883;28;20100;-74
2022/12/15 18:50:43;;;;;;;217.73;71.68;;;;;;;-6.64;90.19;98831.78;8294201;28;20054;-74
2022/12/15 18:54:46;;;;;;;200.57;68.50;;;;;;;-6.62;90.49;98835.03;8274588;28;20454;-74
2022/12/15 18:58:47;;;;;;;204.70;68.93;;;;;;;-6.58;90.74;98825.72;8259864;28;20050;-76
2022/12/15 19:02:48;;;;;;;209.05;71.18;;;;;;;-6.54;90.15;98834.78;8344582;28;20495;-75
2022/12/15 19:06:49;;;;;;;214.40;72.70;;;;;;;-6.56;90.39;98828.94;8366852;28;20060;-75
2022/12/15 19:10:57;;;;;;;214.60;69.70;;;;;;;-6.62;90.80;98829.78;8387914;28;20499;-74
2022/12/15 19:15:02;;;;;;;211.32;69.75;;;;;;;-6.58;90.62;98835.41;8390855;28;20049;-74
2022/12/15 19:23:24;;;;;;;229.88;76.05;;;;;;;-6.63;90.67;98848.34;8393624;28;20052;-74
2022/12/15 19:27:25;;;;;;;224.07;76.85;;;;;;;-6.71;90.96;98836.22;8393872;28;20059;-74
2022/12/15 19:31:26;;;;;;;187.02;62.75;;;;;;;-6.81;91.56;98841.09;8375234;28;20044;-74
2022/12/15 19:35:28;;;;;;;180.23;59.20;;;;;;;-6.83;91.45;98840.50;8352479;28;20567;-73
2022/12/15 19:39:31;;;;;;;173.13;55.40;;;;;;;-6.85;91.20;98834.63;8381744;28;20060;-74
2022/12/15 19:43:32;;;;;;;165.98;53.83;;;;;;;-6.82;91.36;98823.75;8393818;28;20045;-74
2022/12/15 19:47:34;;;;;;;151.40;52.55;;;;;;;-6.81;91.36;98825.34;8379918;28;20044;-75
2022/12/15 19:51:36;;;;;;;159.35;53.70;;;;;;;-6.80;91.58;98821.72;8381292;28;20045;-74
2022/12/15 19:55:37;;;;;;;162.43;53.35;;;;;;;-6.74;91.56;98814.84;8382894;28;20044;-74
2022/12/15 19:59:38;;;;;;;174.27;55.70;;;;;;;-6.67;91.24;98821.69;8386618;28;20080;-74
2022/12/15 20:03:45;;;;;;;184.50;59.88;;;;;;;-6.62;91.21;98823.72;8388697;28;20139;-75
2022/12/15 20:07:46;;;;;;;184.27;60.72;;;;;;;-6.55;91.70;98814.78;8385776;28;20049;-75
2022/12/15 20:11:48;;;;;;;205.18;67.65;;;;;;;-6.46;91.34;98808.31;8382941;28;20041;-74
2022/12/15 20:15:49;;;;;;;246.88;77.53;;;;;;;-6.32;91.34;98808.25;8376907;28;20049;-74
2022/12/15 20:19:50;;;;;;;240.13;71.85;;;;;;;-6.18;90.98;98815.88;8383420;28;20043;-74
2022/12/15 20:24:01;;;;;;;240.07;73.43;;;;;;;-6.09;91.06;98808.59;8385028;28;20041;-75
2022/12/15 20:28:03;;;;;;;204.70;64.35;;;;;;;-5.99;91.42;98808.94;8372019;28;20483;-74
2022/12/15 20:32:18;;;;;;;187.32;61.28;;;;;;;-5.90;91.50;98802.41;8382339;28;20094;-74
2022/12/15 20:36:25;;;;;;;196.50;65.78;;;;;;;-5.79;92.12;98793.00;8372821;28;20044;-74
2022/12/15 20:40:28;;;;;;;189.35;62.53;;;;;;;-5.72;92.28;98789.34;8388317;28;20450;-74
2022/12/15 20:44:29;;;;;;;199.85;61.92;;;;;;;-5.62;92.33;98783.59;8381311;28;20057;-76
2022/12/15 20:48:33;;;;;;;187.38;59.90;;;;;;;-5.55;92.57;98790.41;8383907;28;20045;-74
2022/12/15 20:52:34;;;;;;;194.95;63.17;;;;;;;-5.46;92.25;98792.81;8391429;28;20045;-75
2022/12/15 20:56:36;;;;;;;183.20;60.42;;;;;;;-5.42;92.82;98799.25;8324111;28;20439;-75
2022/12/15 21:00:38;;;;;;;175.88;58.28;;;;;;;-5.34;92.59;98801.66;8324689;28;20045;-75
2022/12/15 21:04:39;;;;;;;184.07;60.22;;;;;;;-5.30;92.67;98797.56;8298952;28;20042;-75
2022/12/15 21:08:40;;;;;;;196.00;63.90;;;;;;;-5.28;92.61;98809.47;8323679;28;20605;-75
2022/12/15 21:12:43;;;;;;;183.50;65.35;;;;;;;-5.25;92.82;98810.88;8322946;28;20462;-75
2022/12/15 21:16:45;;;;;;;204.18;67.18;;;;;;;-5.21;92.59;98817.31;8324493;28;20475;-74
2022/12/15 21:20:56;;;;;;;179.98;63.33;;;;;;;-5.17;93.00;98807.97;8308484;28;20065;-75